Time;durP1;ratioP1;P1;durP2;ratioP2;P2;SDS_P1;SDS_P2;PMS_P1;PMS_P2;Temp;Humidity;BMP_temperature;BMP_pressure;BME280_temperature;BME280_humidity;BME280_pressure;Samples;Min_cycle;Max_cycle;Signal;HPM_P1;HPM_P2
2022/12/28 00:02:20;;;;;;;6.38;3.22;;;3.40;61.50;;;;;;4685095;29;116364;-81
2022/12/28 00:04:47;;;;;;;8.45;3.95;;;3.40;61.50;;;;;;4699761;29;114726;-81
2022/12/28 00:07:15;;;;;;;8.43;3.55;;;3.40;61.40;;;;;;4723569;29;114705;-81
2022/12/28 00:09:42;;;;;;;8.73;4.32;;;3.40;61.40;;;;;;4736247;29;114971;-81
2022/12/28 00:12:10;;;;;;;6.10;3.28;;;3.40;61.40;;;;;;4736225;29;116552;-81
2022/12/28 00:14:37;;;;;;;6.75;3.67;;;3.50;61.50;;;;;;4737718;29;114868;-81
2022/12/28 00:17:04;;;;;;;9.20;3.55;;;3.50;61.50;;;;;;4721829;29;118168;-82
2022/12/28 00:19:31;;;;;;;7.20;3.67;;;3.50;61.40;;;;;;4738419;29;114506;-82
2022/12/28 00:21:59;;;;;;;8.95;3.90;;;3.50;61.40;;;;;;4737263;29;115134;-82
2022/12/28 00:24:26;;;;;;;7.35;3.70;;;3.50;61.30;;;;;;4735065;29;114692;-81
2022/12/28 00:26:55;;;;;;;10.65;4.38;;;3.50;61.30;;;;;;4738145;29;114346;-81
2022/12/28 00:29:22;;;;;;;7.03;3.92;;;3.50;61.50;;;;;;4736624;29;114583;-81
2022/12/28 00:31:50;;;;;;;13.43;3.30;;;3.50;61.60;;;;;;4735729;29;115414;-81
2022/12/28 00:34:17;;;;;;;8.13;3.88;;;3.50;61.40;;;;;;4736259;29;116008;-81
2022/12/28 00:36:44;;;;;;;9.70;3.83;;;3.50;61.30;;;;;;4735798;29;114581;-82
2022/12/28 00:39:32;;;;;;;9.20;3.58;;;3.50;61.30;;;;;;4751552;29;114456;-82
2022/12/28 00:41:59;;;;;;;8.73;4.03;;;3.50;61.40;;;;;;4750578;29;115235;-82
2022/12/28 00:44:26;;;;;;;8.85;4.40;;;3.50;61.50;;;;;;4734171;29;114821;-82
2022/12/28 00:46:53;;;;;;;7.97;3.80;;;3.40;61.40;;;;;;4738076;29;114827;-82
2022/12/28 00:49:21;;;;;;;8.65;4.20;;;3.40;61.60;;;;;;4735719;29;115074;-83
2022/12/28 00:51:48;;;;;;;10.40;4.57;;;3.40;61.30;;;;;;4719346;29;115188;-82
2022/12/28 00:54:15;;;;;;;9.95;4.25;;;3.40;61.30;;;;;;4735686;29;116135;-83
2022/12/28 00:56:43;;;;;;;10.20;4.68;;;3.40;61.20;;;;;;4736887;29;114436;-82
2022/12/28 00:59:10;;;;;;;6.72;3.72;;;3.30;61.40;;;;;;4738517;29;114649;-82
2022/12/28 01:01:37;;;;;;;9.45;3.40;;;3.30;61.20;;;;;;4737238;29;115232;-82
2022/12/28 01:04:05;;;;;;;7.82;3.75;;;3.30;61.20;;;;;;4736753;29;115114;-82
2022/12/28 01:06:32;;;;;;;6.68;3.63;;;3.20;61.50;;;;;;4737847;29;114578;-82
2022/12/28 01:08:59;;;;;;;7.05;3.63;;;3.20;61.50;;;;;;4737436;29;115733;-82
2022/12/28 01:11:28;;;;;;;9.60;3.85;;;3.20;61.70;;;;;;4736030;29;115325;-82
2022/12/28 01:13:58;;;;;;;9.15;3.38;;;3.20;61.70;;;;;;4736608;29;115961;-82
2022/12/28 01:16:26;;;;;;;7.97;3.70;;;3.20;61.50;;;;;;4751181;29;114487;-82
2022/12/28 01:18:56;;;;;;;7.72;3.85;;;3.20;61.60;;;;;;4750807;29;114822;-82
2022/12/28 01:21:26;;;;;;;11.15;4.72;;;3.20;61.60;;;;;;4735308;29;115508;-82
2022/12/28 01:23:56;;;;;;;9.60;4.57;;;3.20;61.70;;;;;;4750406;29;114719;-82
2022/12/28 01:26:24;;;;;;;12.38;5.90;;;3.10;61.70;;;;;;4750689;29;114632;-82
2022/12/28 01:28:51;;;;;;;12.65;5.55;;;3.10;61.70;;;;;;4736123;29;114677;-82
2022/12/28 01:31:19;;;;;;;13.77;5.60;;;3.00;61.90;;;;;;4735089;29;116466;-82
2022/12/28 01:33:46;;;;;;;14.23;6.00;;;3.00;62.00;;;;;;4735330;29;114761;-82
2022/12/28 01:36:16;;;;;;;15.05;5.93;;;3.00;62.00;;;;;;4733980;29;114463;-82
2022/12/28 01:38:44;;;;;;;10.80;5.57;;;3.00;62.10;;;;;;4735825;29;114746;-82
2022/12/28 01:41:16;;;;;;;16.25;6.20;;;3.00;62.30;;;;;;4750021;29;115120;-82
2022/12/28 01:43:52;;;;;;;16.90;6.80;;;2.90;62.40;;;;;;4734769;29;114773;-82
2022/12/28 01:46:38;;;;;;;13.35;6.25;;;2.90;62.40;;;;;;4735901;29;114605;-82
2022/12/28 01:49:15;;;;;;;15.70;6.82;;;2.90;62.40;;;;;;4735214;29;114794;-82
2022/12/28 01:52:04;;;;;;;19.23;6.88;;;2.90;62.50;;;;;;4736308;29;115082;-82
2022/12/28 01:55:01;;;;;;;12.25;6.32;;;2.80;62.60;;;;;;4720279;29;114677;-82
2022/12/28 01:57:31;;;;;;;12.90;6.10;;;2.80;62.70;;;;;;4736782;29;114513;-81
2022/12/28 02:00:28;;;;;;;16.48;6.60;;;2.80;62.70;;;;;;4750800;29;114869;-81
2022/12/28 02:03:03;;;;;;;15.82;6.70;;;2.80;62.80;;;;;;4726202;29;115352;-81
2022/12/28 02:05:35;;;;;;;17.40;6.22;;;2.70;62.90;;;;;;4748266;29;114711;-81
2022/12/28 02:08:23;;;;;;;13.85;6.30;;;2.70;62.80;;;;;;4734118;29;114787;-81
2022/12/28 02:10:51;;;;;;;14.25;6.20;;;2.70;63.00;;;;;;4735166;29;117820;-81
2022/12/28 02:13:19;;;;;;;14.40;5.60;;;2.60;63.10;;;;;;4735612;29;115105;-81
2022/12/28 02:15:47;;;;;;;13.55;5.90;;;2.70;63.20;;;;;;4719635;29;114626;-80
2022/12/28 02:18:15;;;;;;;14.88;6.15;;;2.60;63.10;;;;;;4748358;29;116143;-81
2022/12/28 02:21:09;;;;;;;14.15;6.60;;;2.60;63.00;;;;;;4735408;29;117344;-81
2022/12/28 02:24:16;;;;;;;14.87;5.73;;;2.60;63.10;;;;;;4748741;29;115606;-81
2022/12/28 02:26:51;;;;;;;11.25;5.20;;;2.60;63.30;;;;;;4719049;29;114856;-82
2022/12/28 02:29:24;;;;;;;9.75;5.28;;;2.50;63.10;;;;;;4719583;29;115719;-81
2022/12/28 02:32:03;;;;;;;10.50;5.07;;;2.40;63.00;;;;;;4736217;29;114683;-81
2022/12/28 02:34:40;;;;;;;10.45;4.97;;;2.40;63.00;;;;;;4734226;29;115572;-81
2022/12/28 02:37:47;;;;;;;10.05;5.22;;;2.40;63.10;;;;;;4718839;29;117621;-80
2022/12/28 02:40:52;;;;;;;11.32;4.72;;;2.50;63.30;;;;;;4725457;29;114717;-81
2022/12/28 02:43:22;;;;;;;9.93;5.07;;;2.50;63.20;;;;;;4719802;29;114460;-81
2022/12/28 02:51:59;;;;;;;7.40;4.28;;;2.40;63.20;;;;;;4733601;29;116761;-81
2022/12/28 02:58:02;;;;;;;10.60;4.72;;;2.40;63.20;;;;;;4734521;29;115343;-81
2022/12/28 03:01:14;;;;;;;;;;;2.30;63.30;;;;;;4733830;29;118069;-80
2022/12/28 03:04:10;;;;;;;10.15;4.43;;;2.30;63.20;;;;;;4721779;29;114547;-81
2022/12/28 03:10:03;;;;;;;9.45;4.70;;;2.20;63.40;;;;;;4733782;29;115634;-82
2022/12/28 03:13:03;;;;;;;14.52;5.78;;;2.30;63.40;;;;;;4733583;29;114839;-81
2022/12/28 03:15:35;;;;;;;15.63;5.88;;;2.30;63.60;;;;;;4734294;29;114551;-81
2022/12/28 03:32:07;;;;;;;10.88;5.55;;;2.20;63.90;;;;;;4726106;29;115130;-81
2022/12/28 03:34:35;;;;;;;12.85;5.72;;;2.10;63.90;;;;;;4737800;29;116365;-81
2022/12/28 03:37:24;;;;;;;12.07;5.15;;;2.20;63.90;;;;;;4738827;29;114496;-81
2022/12/28 03:40:10;;;;;;;11.50;5.70;;;2.10;63.80;;;;;;4738781;29;114321;-81
2022/12/28 03:45:51;;;;;;;10.50;4.22;;;2.20;64.00;;;;;;4738481;29;114649;-81
2022/12/28 03:48:19;;;;;;;10.18;4.95;;;2.20;63.90;;;;;;4753474;29;114612;-81
2022/12/28 03:50:48;;;;;;;10.02;4.60;;;2.20;63.90;;;;;;4709746;29;114394;-81
2022/12/28 03:53:19;;;;;;;12.48;4.90;;;2.10;64.00;;;;;;4722607;29;115197;-82
2022/12/28 03:55:48;;;;;;;12.50;4.65;;;2.20;64.00;;;;;;4723388;29;114716;-81
2022/12/28 03:58:18;;;;;;;11.25;5.22;;;2.20;64.00;;;;;;4724188;29;114345;-81
2022/12/28 04:00:46;;;;;;;10.63;5.15;;;2.20;63.90;;;;;;4708703;29;114737;-84
2022/12/28 04:03:13;;;;;;;10.20;5.75;;;2.20;64.00;;;;;;4737705;29;115445;-80
2022/12/28 04:05:42;;;;;;;13.05;5.25;;;2.20;63.90;;;;;;4722510;29;116596;-80
2022/12/28 04:08:09;;;;;;;13.13;5.47;;;2.20;64.00;;;;;;4738326;29;114694;-81
2022/12/28 04:10:36;;;;;;;12.55;5.07;;;2.10;63.80;;;;;;4736367;29;114432;-80
2022/12/28 04:13:04;;;;;;;12.23;6.10;;;2.10;64.00;;;;;;4736541;29;115141;-81
2022/12/28 04:15:40;;;;;;;10.13;4.60;;;2.10;64.00;;;;;;4737032;29;114819;-81
2022/12/28 04:18:08;;;;;;;12.63;4.88;;;2.10;64.00;;;;;;4737522;29;114466;-81
2022/12/28 04:20:37;;;;;;;13.13;5.20;;;2.10;64.20;;;;;;4723692;29;114714;-81
2022/12/28 04:23:04;;;;;;;10.95;5.13;;;2.10;64.50;;;;;;4737188;29;115229;-80
2022/12/28 04:25:32;;;;;;;8.23;4.25;;;2.10;64.20;;;;;;4737179;29;114600;-80
2022/12/28 04:27:59;;;;;;;11.60;5.13;;;2.00;64.30;;;;;;4737931;29;114787;-81
2022/12/28 04:30:49;;;;;;;8.90;4.82;;;2.00;64.30;;;;;;4731120;29;114620;-80
2022/12/28 04:33:17;;;;;;;9.77;4.78;;;2.00;64.00;;;;;;4737061;29;115113;-80
2022/12/28 04:35:46;;;;;;;8.60;4.65;;;1.90;64.00;;;;;;4737438;29;114713;-80
2022/12/28 04:38:14;;;;;;;8.13;4.70;;;1.80;64.30;;;;;;4737354;29;114648;-81
2022/12/28 04:40:41;;;;;;;8.73;4.22;;;1.80;64.20;;;;;;4738331;29;116129;-80
2022/12/28 04:43:08;;;;;;;7.90;3.83;;;1.70;64.40;;;;;;4751213;29;115252;-80
2022/12/28 04:45:36;;;;;;;7.18;3.75;;;1.70;64.50;;;;;;4751650;29;114672;-80
2022/12/28 04:48:03;;;;;;;11.15;4.32;;;1.70;64.30;;;;;;4752623;29;114440;-80
2022/12/28 04:50:30;;;;;;;9.75;4.40;;;1.70;64.50;;;;;;4737764;29;114499;-81
2022/12/28 04:52:59;;;;;;;8.77;4.25;;;1.60;64.90;;;;;;4751778;29;115170;-80
2022/12/28 04:55:26;;;;;;;10.95;4.13;;;1.70;64.80;;;;;;4748850;29;114661;-80
2022/12/28 04:57:59;;;;;;;12.07;4.93;;;1.70;64.80;;;;;;4736512;29;114573;-80
2022/12/28 05:00:27;;;;;;;10.85;4.60;;;1.80;64.60;;;;;;4737761;29;114334;-80
2022/12/28 05:02:57;;;;;;;11.73;4.70;;;1.80;64.50;;;;;;4721242;29;119221;-80
2022/12/28 05:05:26;;;;;;;6.65;3.83;;;1.80;64.80;;;;;;4731538;29;114699;-81
2022/12/28 05:07:54;;;;;;;7.40;3.33;;;1.70;64.60;;;;;;4719605;29;114496;-81
2022/12/28 05:10:21;;;;;;;9.25;4.03;;;1.70;64.70;;;;;;4737070;29;114491;-81
2022/12/28 05:12:48;;;;;;;11.90;4.85;;;1.70;64.90;;;;;;4750012;29;115036;-81
2022/12/28 05:15:15;;;;;;;10.32;4.22;;;1.80;65.00;;;;;;4733472;29;114831;-81
2022/12/28 05:17:42;;;;;;;6.47;3.58;;;1.80;64.80;;;;;;4737690;29;114717;-81
2022/12/28 05:20:10;;;;;;;8.02;3.97;;;1.80;64.80;;;;;;4738495;29;114364;-81
2022/12/28 05:22:38;;;;;;;7.65;3.60;;;1.90;64.60;;;;;;4748463;29;115969;-81
2022/12/28 05:25:07;;;;;;;8.93;3.95;;;1.80;64.50;;;;;;4736485;29;114809;-81
2022/12/28 05:27:34;;;;;;;9.80;3.72;;;1.80;64.60;;;;;;4738629;29;114239;-80
2022/12/28 05:30:02;;;;;;;10.35;3.78;;;1.80;64.40;;;;;;4737200;29;114567;-80
2022/12/28 05:32:29;;;;;;;11.88;4.78;;;1.70;64.30;;;;;;4732908;29;115214;-80
2022/12/28 05:34:56;;;;;;;8.35;4.03;;;1.60;64.30;;;;;;4735070;29;114950;-80
2022/12/28 05:37:24;;;;;;;7.90;3.88;;;1.60;64.60;;;;;;4738452;29;114440;-80
2022/12/28 05:39:51;;;;;;;10.63;3.90;;;1.60;64.70;;;;;;4738384;29;114759;-80
2022/12/28 05:42:18;;;;;;;8.50;4.05;;;1.60;65.00;;;;;;4736457;29;115811;-81
2022/12/28 05:44:45;;;;;;;6.57;2.90;;;1.60;64.90;;;;;;4735667;29;114645;-81
2022/12/28 05:47:13;;;;;;;9.60;4.30;;;1.50;64.80;;;;;;4737107;29;114562;-81
2022/12/28 05:49:40;;;;;;;8.43;4.00;;;1.50;64.70;;;;;;4737717;29;114378;-80
2022/12/28 05:52:07;;;;;;;7.30;4.25;;;1.50;64.90;;;;;;4737212;29;115051;-81
2022/12/28 05:54:34;;;;;;;8.55;4.38;;;1.50;64.90;;;;;;4736266;29;114656;-82
2022/12/28 05:57:01;;;;;;;8.55;4.03;;;1.50;65.00;;;;;;4736609;29;114609;-81
2022/12/28 05:59:29;;;;;;;8.65;4.55;;;1.60;65.10;;;;;;4721741;29;114619;-81
2022/12/28 06:01:56;;;;;;;9.90;4.65;;;1.60;65.10;;;;;;4736167;29;115241;-81
2022/12/28 06:04:24;;;;;;;7.03;4.30;;;1.70;65.10;;;;;;4737394;29;114794;-81
2022/12/28 06:06:53;;;;;;;6.95;3.90;;;1.70;65.10;;;;;;4751635;29;114647;-81
2022/12/28 06:09:20;;;;;;;5.80;3.60;;;1.70;65.00;;;;;;4736834;29;114433;-82
2022/12/28 06:11:47;;;;;;;8.68;4.43;;;1.70;64.90;;;;;;4733318;29;115226;-81
2022/12/28 06:14:15;;;;;;;7.88;3.72;;;1.70;64.80;;;;;;4718812;29;114725;-81
2022/12/28 06:16:42;;;;;;;13.50;3.97;;;1.70;64.80;;;;;;4733454;29;114558;-81
2022/12/28 06:19:10;;;;;;;10.98;4.88;;;1.60;64.70;;;;;;4719955;29;114480;-81
2022/12/28 06:21:41;;;;;;;8.32;4.30;;;1.60;64.60;;;;;;4719113;29;118942;-81
2022/12/28 06:24:09;;;;;;;7.32;3.92;;;1.50;64.70;;;;;;4731448;29;114700;-81
2022/12/28 06:26:37;;;;;;;7.75;4.20;;;1.40;64.80;;;;;;4734970;29;114626;-81
2022/12/28 06:29:04;;;;;;;7.93;4.25;;;1.30;65.00;;;;;;4705356;29;114942;-81
2022/12/28 06:31:34;;;;;;;11.13;4.20;;;1.30;65.00;;;;;;4733885;29;115123;-82
2022/12/28 06:34:03;;;;;;;7.28;3.08;;;1.20;65.20;;;;;;4733510;29;115092;-81
2022/12/28 06:36:39;;;;;;;7.85;3.63;;;1.20;65.30;;;;;;4719057;29;114497;-82
2022/12/28 06:39:09;;;;;;;9.30;5.55;;;1.20;65.50;;;;;;4718265;29;114779;-82
2022/12/28 06:41:36;;;;;;;5.82;3.38;;;1.20;65.50;;;;;;4716722;29;117615;-82
2022/12/28 06:44:08;;;;;;;6.97;3.33;;;1.20;65.60;;;;;;4704652;29;116908;-82
2022/12/28 06:46:35;;;;;;;9.23;3.67;;;1.30;65.60;;;;;;4717547;29;115091;-83
2022/12/28 06:49:02;;;;;;;8.93;3.40;;;1.30;65.50;;;;;;4720802;29;114835;-83
2022/12/28 06:51:35;;;;;;;9.60;3.83;;;1.30;65.50;;;;;;4750060;29;115885;-82
2022/12/28 06:54:02;;;;;;;8.00;3.00;;;1.40;65.40;;;;;;4749933;29;114807;-82
2022/12/28 06:56:31;;;;;;;6.57;3.08;;;1.50;65.40;;;;;;4737435;29;114845;-82
2022/12/28 06:58:59;;;;;;;7.43;2.90;;;1.50;65.30;;;;;;4736287;29;114629;-82
2022/12/28 07:01:38;;;;;;;8.63;3.30;;;1.50;65.20;;;;;;4735240;29;115509;-82
2022/12/28 07:04:07;;;;;;;7.68;3.38;;;1.50;65.10;;;;;;4750730;29;115450;-81
2022/12/28 07:06:38;;;;;;;6.70;3.30;;;1.50;65.10;;;;;;4754134;29;114477;-82
2022/12/28 07:09:08;;;;;;;9.23;3.38;;;1.60;65.20;;;;;;4724353;29;114420;-82
2022/12/28 07:11:36;;;;;;;10.60;3.95;;;1.60;65.30;;;;;;4753278;29;115049;-80
2022/12/28 07:14:03;;;;;;;8.70;4.35;;;1.70;65.20;;;;;;4738344;29;115832;-81
2022/12/28 07:16:30;;;;;;;12.80;4.47;;;1.70;65.10;;;;;;4724202;29;114341;-82
2022/12/28 07:19:00;;;;;;;15.90;5.97;;;1.80;65.10;;;;;;4754139;29;114622;-81
2022/12/28 07:21:35;;;;;;;12.35;5.10;;;1.90;65.00;;;;;;4739446;29;115752;-82
2022/12/28 07:24:04;;;;;;;12.25;5.00;;;2.00;64.90;;;;;;4738134;29;114748;-81
2022/12/28 07:26:33;;;;;;;16.77;5.80;;;2.00;64.90;;;;;;4753914;29;114369;-81
2022/12/28 07:29:02;;;;;;;13.27;5.40;;;2.10;64.60;;;;;;4753596;29;114666;-82
2022/12/28 07:31:32;;;;;;;13.65;5.88;;;2.10;64.30;;;;;;4738079;29;115159;-81
2022/12/28 07:34:07;;;;;;;10.23;5.05;;;2.10;64.50;;;;;;4738003;29;114698;-82
2022/12/28 07:36:35;;;;;;;14.07;4.50;;;2.20;64.30;;;;;;4752962;29;115861;-82
2022/12/28 07:39:02;;;;;;;8.13;4.28;;;2.20;64.00;;;;;;4738803;29;115004;-82
2022/12/28 07:41:35;;;;;;;8.85;4.07;;;2.20;63.70;;;;;;4738013;29;119373;-82
2022/12/28 07:44:04;;;;;;;10.38;4.90;;;2.10;63.70;;;;;;4718136;29;115667;-81
2022/12/28 07:46:33;;;;;;;12.73;5.65;;;2.10;63.70;;;;;;4738179;29;114459;-82
2022/12/28 07:49:01;;;;;;;10.85;5.22;;;2.20;63.60;;;;;;4735013;29;116428;-83
2022/12/28 07:51:36;;;;;;;11.40;5.28;;;2.10;63.70;;;;;;4737038;29;116532;-83
2022/12/28 07:54:06;;;;;;;12.38;5.25;;;2.20;63.70;;;;;;4737822;29;114914;-82
2022/12/28 07:56:33;;;;;;;14.20;6.15;;;2.20;63.70;;;;;;4736684;29;114502;-82
2022/12/28 07:59:02;;;;;;;12.75;6.45;;;2.30;64.00;;;;;;4737957;29;114698;-83
2022/12/28 08:01:31;;;;;;;11.95;5.85;;;2.30;63.70;;;;;;4736727;29;115219;-84
2022/12/28 08:04:06;;;;;;;9.45;5.00;;;2.40;63.60;;;;;;4736617;29;117945;-82
2022/12/28 08:06:35;;;;;;;12.70;6.18;;;2.50;63.30;;;;;;4736460;29;114581;-81
2022/12/28 08:09:03;;;;;;;12.55;5.03;;;2.60;63.10;;;;;;4708186;29;114820;-81
2022/12/28 08:11:32;;;;;;;12.20;5.15;;;2.60;63.00;;;;;;4750989;29;115031;-81
2022/12/28 08:14:00;;;;;;;15.38;5.57;;;2.70;63.00;;;;;;4735412;29;116190;-82
2022/12/28 08:16:30;;;;;;;12.13;4.97;;;2.80;62.70;;;;;;4721332;29;114561;-82
2022/12/28 08:18:57;;;;;;;14.45;5.78;;;2.80;62.40;;;;;;4705526;29;115322;-83
2022/12/28 08:21:35;;;;;;;17.08;5.85;;;2.90;62.60;;;;;;4737958;29;115198;-83
2022/12/28 08:24:03;;;;;;;16.95;6.60;;;2.90;63.00;;;;;;4738048;29;114668;-83
2022/12/28 08:26:36;;;;;;;17.65;7.20;;;3.10;62.70;;;;;;4722144;29;114594;-82
2022/12/28 08:29:06;;;;;;;21.40;7.93;;;3.20;62.50;;;;;;4751485;29;114584;-82
2022/12/28 08:31:36;;;;;;;19.45;7.18;;;3.20;61.80;;;;;;4738272;29;115961;-83
2022/12/28 08:34:09;;;;;;;21.38;7.32;;;3.30;62.00;;;;;;4733930;29;116677;-81
2022/12/28 08:36:36;;;;;;;19.08;7.80;;;3.50;61.80;;;;;;4736315;29;118526;-83
2022/12/28 08:39:04;;;;;;;17.42;7.45;;;3.60;61.60;;;;;;4737243;29;114581;-82
2022/12/28 08:41:31;;;;;;;15.63;5.68;;;3.80;61.50;;;;;;4737648;29;115683;-81
2022/12/28 08:43:58;;;;;;;12.90;4.68;;;3.90;60.90;;;;;;4719265;29;117314;-82
2022/12/28 08:46:31;;;;;;;9.82;3.90;;;4.00;60.40;;;;;;4752729;29;119360;-83
2022/12/28 08:48:59;;;;;;;14.75;4.97;;;4.10;59.80;;;;;;4735579;29;115096;-83
2022/12/28 08:51:30;;;;;;;12.07;4.82;;;4.20;59.90;;;;;;4750115;29;115187;-82
2022/12/28 08:53:58;;;;;;;12.02;5.10;;;4.30;59.90;;;;;;4735813;29;118447;-83
2022/12/28 08:56:28;;;;;;;15.82;5.20;;;4.30;59.80;;;;;;4733723;29;118573;-83
2022/12/28 08:58:56;;;;;;;11.13;4.60;;;4.40;59.30;;;;;;4734909;29;117711;-81
2022/12/28 09:01:37;;;;;;;11.10;4.78;;;4.50;58.70;;;;;;4716912;29;115178;-83
2022/12/28 09:04:19;;;;;;;12.57;4.53;;;4.50;58.30;;;;;;4746683;29;118315;-82
2022/12/28 09:06:46;;;;;;;11.18;4.25;;;4.40;57.70;;;;;;4751149;29;118433;-83
2022/12/28 09:09:15;;;;;;;10.35;4.32;;;4.50;58.10;;;;;;4721222;29;114534;-83
2022/12/28 09:11:42;;;;;;;7.43;3.65;;;4.40;58.00;;;;;;4735794;29;115383;-81
2022/12/28 09:14:11;;;;;;;11.93;4.95;;;4.40;57.90;;;;;;4734810;29;114905;-82
2022/12/28 09:16:48;;;;;;;7.43;3.22;;;4.50;57.90;;;;;;4731780;29;114847;-82
2022/12/28 09:19:15;;;;;;;7.10;3.60;;;4.40;57.80;;;;;;4748245;29;117713;-82
2022/12/28 09:21:44;;;;;;;8.30;3.50;;;4.40;57.60;;;;;;4735341;29;115275;-82
2022/12/28 09:24:12;;;;;;;10.85;4.20;;;4.40;57.70;;;;;;4737181;29;114654;-82
2022/12/28 09:26:39;;;;;;;7.90;3.47;;;4.40;57.60;;;;;;4738287;29;114383;-82
2022/12/28 09:29:07;;;;;;;7.97;4.00;;;4.40;57.50;;;;;;4733935;29;114474;-83
2022/12/28 09:31:35;;;;;;;10.40;4.72;;;4.50;57.40;;;;;;4737229;29;115176;-82
2022/12/28 09:34:04;;;;;;;13.13;4.70;;;4.50;57.30;;;;;;4735536;29;116292;-84
2022/12/28 09:36:52;;;;;;;12.38;4.65;;;4.40;57.10;;;;;;4736645;29;114572;-82
2022/12/28 09:39:21;;;;;;;10.68;4.18;;;4.40;57.20;;;;;;4735232;29;114522;-83
2022/12/28 09:42:11;;;;;;;14.32;4.57;;;4.30;57.20;;;;;;4736678;29;116078;-82
2022/12/28 09:45:01;;;;;;;10.73;4.20;;;4.40;57.20;;;;;;4735337;29;115892;-84
2022/12/28 09:47:36;;;;;;;10.23;4.07;;;4.40;57.30;;;;;;4737307;29;114599;-83
2022/12/28 09:50:30;;;;;;;10.05;3.50;;;4.40;57.40;;;;;;4736249;29;114460;-83
2022/12/28 09:53:19;;;;;;;7.87;3.47;;;4.30;57.20;;;;;;4726443;29;118824;-83
2022/12/28 09:56:16;;;;;;;7.80;3.50;;;4.40;57.40;;;;;;4733831;29;114817;-82
2022/12/28 09:58:43;;;;;;;9.60;3.10;;;4.40;57.20;;;;;;4742974;29;114801;-83
2022/12/28 10:01:15;;;;;;;7.88;3.78;;;4.40;57.30;;;;;;4736538;29;114624;-82
2022/12/28 10:03:44;;;;;;;7.95;3.08;;;4.50;57.00;;;;;;4733578;29;115205;-82
2022/12/28 10:06:13;;;;;;;11.88;3.70;;;4.50;57.00;;;;;;4734841;29;115468;-84
2022/12/28 10:08:45;;;;;;;8.32;4.10;;;4.60;56.60;;;;;;4720496;29;114496;-83
2022/12/28 10:11:28;;;;;;;10.15;4.07;;;4.70;56.60;;;;;;4735596;29;116096;-82
2022/12/28 10:13:58;;;;;;;7.90;3.97;;;4.70;56.80;;;;;;4733940;29;115105;-83
2022/12/28 10:16:28;;;;;;;12.70;4.40;;;4.80;56.70;;;;;;4734546;29;120748;-82
2022/12/28 10:18:55;;;;;;;9.93;4.03;;;4.90;56.50;;;;;;4719709;29;114607;-83
2022/12/28 10:21:23;;;;;;;9.02;4.22;;;5.00;56.50;;;;;;4736448;29;114535;-83
2022/12/28 10:23:58;;;;;;;11.90;5.13;;;5.00;56.20;;;;;;4720924;29;115191;-82
2022/12/28 10:26:46;;;;;;;14.68;5.63;;;5.10;55.80;;;;;;4721784;29;117121;-82
2022/12/28 10:29:18;;;;;;;12.27;3.97;;;5.10;55.90;;;;;;4734982;29;114859;-83
2022/12/28 10:32:03;;;;;;;13.05;5.05;;;5.10;55.80;;;;;;4734569;29;115585;-82
2022/12/28 10:34:32;;;;;;;15.20;5.15;;;5.10;55.30;;;;;;4748002;29;115121;-82
2022/12/28 10:37:06;;;;;;;12.50;5.20;;;5.10;55.50;;;;;;4735262;29;116104;-82
2022/12/28 10:39:48;;;;;;;11.73;4.60;;;5.10;55.30;;;;;;4733782;29;114694;-83
2022/12/28 10:42:36;;;;;;;;;;;5.10;55.30;;;;;;4720548;29;114655;-82
2022/12/28 10:45:18;;;;;;;8.40;4.10;;;4.90;55.60;;;;;;4733790;29;116515;-83
2022/12/28 10:47:53;;;;;;;13.52;5.30;;;4.90;55.10;;;;;;4733980;29;117228;-84
2022/12/28 10:50:36;;;;;;;7.93;3.47;;;4.70;55.00;;;;;;4706064;29;117089;-83
2022/12/28 10:53:04;;;;;;;7.80;4.33;;;4.60;54.80;;;;;;4748437;29;114849;-83
2022/12/28 10:55:33;;;;;;;10.68;5.57;;;4.40;55.30;;;;;;4733985;29;117829;-82
2022/12/28 10:58:20;;;;;;;11.02;4.68;;;4.40;55.60;;;;;;4719241;29;118853;-84
2022/12/28 11:01:00;;;;;;;7.55;3.83;;;4.40;55.80;;;;;;4733598;29;114455;-84
2022/12/28 11:03:34;;;;;;;9.07;4.45;;;4.40;56.30;;;;;;4734821;29;114493;-81
2022/12/28 11:06:22;;;;;;;8.40;4.30;;;4.40;56.40;;;;;;4748475;29;115209;-84
2022/12/28 11:09:11;;;;;;;12.05;4.20;;;4.40;56.20;;;;;;4735338;29;115658;-82
2022/12/28 11:11:39;;;;;;;7.13;3.58;;;4.50;56.10;;;;;;4735626;29;115165;-84
2022/12/28 11:14:15;;;;;;;8.93;4.13;;;4.50;56.40;;;;;;4748642;29;114549;-83
2022/12/28 11:16:42;;;;;;;10.35;4.40;;;4.60;56.20;;;;;;4717749;29;117371;-84
2022/12/28 11:19:11;;;;;;;7.97;4.25;;;4.60;56.20;;;;;;4730510;29;116111;-83
2022/12/28 11:21:40;;;;;;;11.50;5.10;;;4.70;56.10;;;;;;4718713;29;114765;-83
2022/12/28 11:24:14;;;;;;;8.82;4.65;;;4.80;56.10;;;;;;4719215;29;114708;-84
2022/12/28 11:26:43;;;;;;;;;;;4.80;55.40;;;;;;4732543;29;117180;-83
2022/12/28 11:29:12;;;;;;;7.72;4.18;;;4.60;55.90;;;;;;4747523;29;114714;-83
2022/12/28 11:32:25;;;;;;;6.57;3.90;;;4.60;56.00;;;;;;4718933;29;114561;-82
2022/12/28 11:34:53;;;;;;;9.75;3.80;;;4.60;56.10;;;;;;4726124;29;114760;-83
2022/12/28 11:37:21;;;;;;;8.30;4.03;;;4.60;55.80;;;;;;4719265;29;115652;-82
2022/12/28 11:39:49;;;;;;;8.05;4.38;;;4.50;56.00;;;;;;4733141;29;114622;-82
2022/12/28 11:42:34;;;;;;;9.50;4.35;;;4.50;56.40;;;;;;4717645;29;114479;-82
2022/12/28 11:45:15;;;;;;;10.07;4.85;;;4.60;56.60;;;;;;4736120;29;114406;-85
2022/12/28 11:47:44;;;;;;;9.80;4.30;;;4.60;56.80;;;;;;4747791;29;115741;-84
2022/12/28 11:50:49;;;;;;;9.88;3.97;;;4.60;56.50;;;;;;4718860;29;116790;-83
2022/12/28 11:53:43;;;;;;;7.47;3.22;;;4.70;56.50;;;;;;4732698;29;114781;-82
2022/12/28 11:56:15;;;;;;;7.82;3.88;;;4.80;56.60;;;;;;4739303;29;114570;-84
2022/12/28 11:59:04;;;;;;;8.68;4.10;;;4.80;56.50;;;;;;4719632;29;116735;-85
2022/12/28 12:01:35;;;;;;;7.95;4.10;;;4.80;56.10;;;;;;4720864;29;115401;-83
2022/12/28 12:04:03;;;;;;;7.40;3.95;;;4.80;56.30;;;;;;4737854;29;114557;-83
2022/12/28 12:06:42;;;;;;;8.32;4.13;;;4.80;56.50;;;;;;4738870;29;114565;-82
2022/12/28 12:09:22;;;;;;;8.85;4.35;;;4.90;56.30;;;;;;4738161;29;115430;-84
2022/12/28 12:11:50;;;;;;;7.88;4.03;;;4.90;56.40;;;;;;4736122;29;114686;-83
2022/12/28 12:14:22;;;;;;;10.88;4.75;;;4.80;56.70;;;;;;4738613;29;114657;-83
2022/12/28 12:16:52;;;;;;;13.23;4.57;;;4.90;56.70;;;;;;4735324;29;119503;-83
2022/12/28 12:19:25;;;;;;;10.82;4.90;;;4.90;56.60;;;;;;4720255;29;115136;-84
2022/12/28 12:22:02;;;;;;;10.93;5.50;;;5.00;56.60;;;;;;4721768;29;118732;-84
2022/12/28 12:24:45;;;;;;;12.20;5.00;;;4.90;56.60;;;;;;4736447;29;115457;-82
2022/12/28 12:27:39;;;;;;;10.90;5.05;;;4.90;57.00;;;;;;4736524;29;114947;-83
2022/12/28 12:30:17;;;;;;;13.60;5.80;;;5.00;57.00;;;;;;4734886;29;115161;-82
2022/12/28 12:32:57;;;;;;;10.48;4.82;;;5.10;57.00;;;;;;4721594;29;115335;-83
2022/12/28 12:35:27;;;;;;;12.85;4.82;;;5.10;56.90;;;;;;4736460;29;114434;-83
2022/12/28 12:38:14;;;;;;;8.93;4.72;;;5.10;56.80;;;;;;4723620;29;114403;-83
2022/12/28 12:40:53;;;;;;;15.65;5.63;;;5.20;56.40;;;;;;4734114;29;115817;-84
2022/12/28 12:43:42;;;;;;;10.88;5.38;;;5.10;56.50;;;;;;4735371;29;114720;-84
2022/12/28 12:46:40;;;;;;;10.55;4.93;;;5.20;56.80;;;;;;4747930;29;114480;-83
2022/12/28 12:49:41;;;;;;;11.30;5.70;;;5.20;56.60;;;;;;4737871;29;114388;-82
2022/12/28 12:52:23;;;;;;;14.18;6.10;;;5.20;55.90;;;;;;4747291;29;115783;-84
2022/12/28 12:55:02;;;;;;;10.73;5.15;;;5.00;56.30;;;;;;4735551;29;114695;-84
2022/12/28 12:58:01;;;;;;;9.40;4.32;;;4.90;56.20;;;;;;4736993;29;114614;-82
2022/12/28 13:01:01;;;;;;;10.93;4.57;;;4.90;56.20;;;;;;4736320;29;114809;-82
2022/12/28 13:03:37;;;;;;;8.07;5.07;;;4.80;56.40;;;;;;4732645;29;115362;-83
2022/12/28 13:06:04;;;;;;;8.93;4.78;;;4.70;56.70;;;;;;4736252;29;114981;-84
2022/12/28 13:08:58;;;;;;;9.07;4.90;;;4.70;56.90;;;;;;4736684;29;114774;-84
2022/12/28 13:11:34;;;;;;;10.68;4.85;;;4.90;56.90;;;;;;4736936;29;114284;-82
2022/12/28 13:14:01;;;;;;;12.65;4.72;;;4.90;57.00;;;;;;4734861;29;117336;-82
2022/12/28 13:16:29;;;;;;;10.95;5.55;;;4.90;56.90;;;;;;4705027;29;116917;-83
2022/12/28 13:18:58;;;;;;;10.90;4.97;;;5.00;56.90;;;;;;4720151;29;114758;-83
2022/12/28 13:21:42;;;;;;;14.52;5.55;;;4.90;56.70;;;;;;4737195;29;114560;-83
2022/12/28 13:24:23;;;;;;;11.65;5.22;;;4.90;56.70;;;;;;4750303;29;115342;-84
2022/12/28 13:26:50;;;;;;;11.32;5.03;;;4.90;56.80;;;;;;4736675;29;115422;-84
2022/12/28 13:29:20;;;;;;;10.18;5.43;;;4.90;56.80;;;;;;4748848;29;114523;-83
2022/12/28 13:31:50;;;;;;;9.80;5.00;;;4.80;56.90;;;;;;4734114;29;114832;-84
2022/12/28 13:34:26;;;;;;;12.18;5.10;;;4.90;56.90;;;;;;4736088;29;115259;-82
2022/12/28 13:36:58;;;;;;;13.20;5.30;;;4.90;56.80;;;;;;4736610;29;115129;-82
2022/12/28 13:39:27;;;;;;;8.32;4.60;;;4.90;57.10;;;;;;4751718;29;115044;-83
2022/12/28 13:41:57;;;;;;;13.85;6.20;;;4.90;57.20;;;;;;4751269;29;114716;-83
2022/12/28 13:44:42;;;;;;;14.88;5.57;;;5.00;57.10;;;;;;4750709;29;116283;-83